Time;durP1;ratioP1;P1;durP2;ratioP2;P2;SDS_P1;SDS_P2;PMS_P1;PMS_P2;Temp;Humidity;BMP_temperature;BMP_pressure;BME280_temperature;BME280_humidity;BME280_pressure;Samples;Min_cycle;Max_cycle;Signal;HPM_P1;HPM_P2
2023/07/16 00:00:44;;;;;;;5.20;4.00;;;26.90;56.50;;;;;;222521;1260;26209;-53
2023/07/16 00:06:08;;;;;;;5.20;4.30;;;26.90;56.50;;;;;;222529;1254;22627;-56
2023/07/16 00:11:12;;;;;;;4.00;3.70;;;26.90;56.50;;;;;;222370;1264;22518;-54
2023/07/16 00:16:16;;;;;;;4.20;3.70;;;26.90;57.10;;;;;;222611;1264;24183;-54
2023/07/16 00:21:21;;;;;;;3.60;3.30;;;26.80;56.80;;;;;;222373;1257;22640;-52
2023/07/16 00:26:25;;;;;;;3.60;3.30;;;26.90;56.90;;;;;;222451;1254;22614;-52
2023/07/16 00:31:31;;;;;;;3.60;3.30;;;26.90;57.00;;;;;;222681;1261;22524;-55
2023/07/16 00:36:34;;;;;;;4.30;3.00;;;26.90;57.00;;;;;;222398;1254;22913;-53
2023/07/16 00:41:39;;;;;;;3.70;3.40;;;26.90;57.40;;;;;;222416;1261;22643;-56
2023/07/16 00:46:44;;;;;;;4.20;3.80;;;26.90;57.20;;;;;;222432;1263;22651;-54
2023/07/16 00:51:49;;;;;;;3.50;3.20;;;26.90;57.20;;;;;;222368;1263;22531;-52
2023/07/16 00:56:54;;;;;;;3.90;3.50;;;26.80;57.20;;;;;;222531;1260;23242;-52
2023/07/16 01:01:58;;;;;;;4.50;3.80;;;26.80;57.40;;;;;;222565;1263;22618;-54
2023/07/16 01:07:06;;;;;;;4.10;3.60;;;26.80;58.20;;;;;;222384;1254;24234;-52
2023/07/16 01:12:11;;;;;;;4.80;3.80;;;26.70;57.70;;;;;;222565;1254;24352;-55
2023/07/16 01:17:15;;;;;;;3.60;3.30;;;26.70;57.70;;;;;;222348;1254;24445;-52
2023/07/16 01:22:25;;;;;;;4.10;3.70;;;26.70;57.70;;;;;;222440;1257;22517;-53
2023/07/16 01:27:59;;;;;;;3.70;3.50;;;26.70;58.10;;;;;;222516;1266;22479;-53
2023/07/16 01:33:05;;;;;;;3.90;3.60;;;26.70;57.90;;;;;;222571;1261;23014;-53
2023/07/16 01:38:11;;;;;;;3.60;3.30;;;26.80;57.90;;;;;;222701;1261;25310;-53
2023/07/16 01:43:18;;;;;;;3.90;3.50;;;26.70;57.90;;;;;;222682;1264;22511;-57
2023/07/16 01:48:36;;;;;;;3.80;3.20;;;26.70;58.00;;;;;;222331;1268;22588;-55
2023/07/16 01:53:41;;;;;;;3.70;3.30;;;26.70;58.10;;;;;;222519;1257;22515;-52
2023/07/16 01:58:45;;;;;;;5.10;3.50;;;26.70;58.60;;;;;;222448;1267;22524;-52
2023/07/16 02:03:49;;;;;;;3.60;3.30;;;26.60;58.30;;;;;;222807;1261;25226;-57
2023/07/16 02:08:53;;;;;;;3.30;3.10;;;26.60;58.50;;;;;;222473;1254;22567;-52
2023/07/16 02:13:58;;;;;;;4.50;3.40;;;26.60;58.40;;;;;;222401;1247;204756;-55
2023/07/16 02:19:02;;;;;;;3.80;3.50;;;26.60;58.50;;;;;;222385;1253;25332;-52
2023/07/16 02:24:06;;;;;;;3.90;3.40;;;26.60;58.70;;;;;;222298;1254;22745;-53
2023/07/16 02:29:11;;;;;;;3.30;3.00;;;26.60;58.70;;;;;;222279;1268;22592;-52
2023/07/16 02:34:15;;;;;;;3.60;3.40;;;26.50;58.70;;;;;;222297;1268;22509;-53
2023/07/16 02:39:19;;;;;;;4.20;3.80;;;26.50;58.70;;;;;;222538;1255;22636;-51
2023/07/16 02:44:24;;;;;;;4.70;3.10;;;26.60;58.70;;;;;;222466;1253;25370;-53
2023/07/16 02:49:28;;;;;;;3.30;3.10;;;26.60;58.60;;;;;;222457;1263;22531;-53
2023/07/16 02:54:36;;;;;;;3.40;3.00;;;26.60;58.80;;;;;;222538;1261;22636;-53
2023/07/16 02:59:40;;;;;;;5.20;3.40;;;26.60;58.90;;;;;;222523;1260;22524;-53
2023/07/16 03:04:44;;;;;;;3.60;3.30;;;26.50;59.00;;;;;;222296;1268;22646;-54
2023/07/16 03:09:49;;;;;;;4.40;3.30;;;26.50;59.00;;;;;;222387;1256;24183;-53
2023/07/16 03:14:54;;;;;;;3.80;3.30;;;26.50;59.10;;;;;;222600;1263;22506;-53
2023/07/16 03:19:58;;;;;;;4.00;3.10;;;26.50;59.60;;;;;;222462;1263;22557;-51
2023/07/16 03:25:03;;;;;;;3.90;3.40;;;26.50;59.70;;;;;;222370;1256;22514;-52
2023/07/16 03:30:07;;;;;;;4.40;2.90;;;26.50;59.40;;;;;;222692;1260;22567;-54
2023/07/16 03:35:13;;;;;;;3.30;3.00;;;26.50;59.70;;;;;;222792;1264;26496;-53
2023/07/16 03:40:22;;;;;;;3.90;3.00;;;26.50;59.40;;;;;;222394;1254;22518;-54
2023/07/16 03:45:26;;;;;;;5.80;3.20;;;26.50;59.50;;;;;;222239;1266;22518;-52
2023/07/16 03:50:30;;;;;;;4.00;3.20;;;26.50;59.60;;;;;;222552;1260;22645;-50
2023/07/16 03:55:35;;;;;;;4.60;3.20;;;26.50;59.80;;;;;;222410;1260;22523;-53
2023/07/16 04:00:41;;;;;;;3.40;3.10;;;26.50;59.70;;;;;;222782;1265;22520;-55
2023/07/16 04:05:46;;;;;;;5.50;3.50;;;26.60;60.00;;;;;;222376;1266;22504;-55
2023/07/16 04:10:50;;;;;;;5.90;3.00;;;26.60;59.80;;;;;;222489;1254;22522;-52
2023/07/16 04:15:57;;;;;;;3.40;3.20;;;26.70;59.80;;;;;;222363;1256;24471;-52
2023/07/16 04:21:02;;;;;;;4.30;3.50;;;26.70;60.00;;;;;;222584;1261;25335;-51
2023/07/16 04:26:06;;;;;;;4.10;3.70;;;26.70;60.10;;;;;;222685;1264;22740;-53
2023/07/16 04:31:10;;;;;;;4.90;3.10;;;26.70;60.10;;;;;;222385;1251;22619;-52
2023/07/16 04:36:15;;;;;;;3.60;2.80;;;26.70;60.30;;;;;;222436;1254;24193;-54
2023/07/16 04:41:20;;;;;;;3.40;3.20;;;26.70;60.50;;;;;;222427;1254;24336;-52
2023/07/16 04:46:24;;;;;;;3.70;3.40;;;26.60;61.40;;;;;;222452;1257;24243;-52
2023/07/16 04:51:28;;;;;;;3.90;3.50;;;26.70;60.90;;;;;;222447;1254;22736;-54
2023/07/16 04:56:32;;;;;;;4.40;3.40;;;26.70;61.00;;;;;;222427;1267;22804;-53
2023/07/16 05:01:37;;;;;;;4.10;3.10;;;26.70;61.00;;;;;;222461;1264;22507;-48
2023/07/16 05:06:41;;;;;;;6.40;3.30;;;26.70;60.90;;;;;;222416;1253;22505;-52
2023/07/16 05:11:45;;;;;;;3.40;3.10;;;26.70;60.70;;;;;;222805;1260;25493;-52
2023/07/16 05:16:50;;;;;;;3.40;3.00;;;26.80;60.70;;;;;;222321;1263;23010;-54
2023/07/16 05:21:54;;;;;;;4.70;3.40;;;26.80;60.50;;;;;;222526;1267;22500;-54
2023/07/16 05:26:58;;;;;;;3.80;3.40;;;26.80;60.40;;;;;;222473;1264;22749;-52
2023/07/16 05:32:04;;;;;;;3.50;3.20;;;26.80;60.20;;;;;;222462;1263;23908;-52
2023/07/16 05:37:08;;;;;;;4.10;3.60;;;26.90;60.30;;;;;;222631;1268;24190;-54
2023/07/16 05:42:12;;;;;;;6.00;3.00;;;26.90;60.00;;;;;;222449;1257;22511;-54
2023/07/16 05:47:17;;;;;;;4.80;3.10;;;26.90;59.80;;;;;;222400;1256;22518;-53
2023/07/16 05:52:21;;;;;;;3.70;3.40;;;26.90;59.60;;;;;;222198;1260;24295;-53
2023/07/16 05:57:25;;;;;;;3.60;3.40;;;26.90;59.40;;;;;;222468;1268;24045;-52
2023/07/16 06:02:29;;;;;;;3.40;3.00;;;27.00;59.60;;;;;;222603;1263;25471;-56
2023/07/16 06:07:34;;;;;;;3.90;2.70;;;26.90;59.60;;;;;;222346;1260;22507;-54
2023/07/16 06:12:38;;;;;;;3.50;2.80;;;27.00;60.00;;;;;;222650;1266;24241;-52
2023/07/16 06:17:42;;;;;;;3.50;3.20;;;26.90;59.80;;;;;;222235;1256;22535;-52
2023/07/16 06:22:46;;;;;;;3.70;3.40;;;27.00;59.80;;;;;;222251;1260;22619;-53
2023/07/16 06:27:50;;;;;;;4.10;2.90;;;27.00;59.60;;;;;;222293;1268;23296;-54
2023/07/16 06:32:55;;;;;;;2.90;2.70;;;27.10;59.40;;;;;;222334;1262;22526;-54
2023/07/16 06:37:59;;;;;;;3.70;3.40;;;27.10;59.10;;;;;;222634;1266;22669;-53
2023/07/16 06:43:03;;;;;;;3.30;3.00;;;27.00;59.20;;;;;;222368;1257;22772;-55
2023/07/16 06:48:08;;;;;;;2.80;2.60;;;27.00;59.30;;;;;;222640;1260;22514;-52
2023/07/16 06:53:12;;;;;;;3.10;2.80;;;27.00;59.60;;;;;;222498;1254;25270;-52
2023/07/16 06:58:17;;;;;;;3.90;2.50;;;27.10;59.00;;;;;;222620;1253;24170;-54
2023/07/16 07:03:21;;;;;;;3.20;2.70;;;27.10;59.10;;;;;;222578;1260;22639;-52
2023/07/16 07:08:25;;;;;;;3.30;2.80;;;27.10;59.10;;;;;;222492;1260;22525;-51
2023/07/16 07:13:30;;;;;;;2.90;2.70;;;27.10;58.90;;;;;;222708;1264;25238;-55
2023/07/16 07:18:34;;;;;;;3.40;2.90;;;27.10;59.30;;;;;;222575;1254;24192;-54
2023/07/16 07:23:38;;;;;;;2.90;2.60;;;27.10;59.30;;;;;;222562;1260;25345;-54
2023/07/16 07:28:42;;;;;;;2.40;2.20;;;27.10;59.00;;;;;;222603;1256;24361;-52
2023/07/16 07:33:47;;;;;;;3.60;2.60;;;27.10;59.10;;;;;;222487;1259;22596;-54
2023/07/16 07:38:51;;;;;;;2.20;2.10;;;27.20;58.90;;;;;;222461;1254;25309;-53
2023/07/16 07:43:55;;;;;;;2.40;2.20;;;27.20;59.00;;;;;;222477;1266;22515;-55
2023/07/16 07:49:00;;;;;;;2.40;2.20;;;27.20;58.80;;;;;;222504;1264;22762;-52
2023/07/16 07:54:04;;;;;;;2.40;2.20;;;27.20;59.00;;;;;;222614;1248;24193;-55
2023/07/16 07:59:09;;;;;;;2.00;1.90;;;27.20;58.80;;;;;;222252;1260;22511;-52
2023/07/16 08:04:13;;;;;;;2.30;2.10;;;27.30;58.80;;;;;;221128;1271;22763;-51
2023/07/16 08:09:17;;;;;;;2.20;2.00;;;27.30;59.00;;;;;;220998;1260;22819;-53
2023/07/16 08:14:22;;;;;;;1.90;1.80;;;27.30;58.90;;;;;;220992;1261;24268;-55
2023/07/16 08:19:26;;;;;;;2.10;2.00;;;27.30;58.50;;;;;;221405;1263;22603;-53
2023/07/16 08:24:30;;;;;;;1.90;1.80;;;27.30;58.60;;;;;;222390;1257;24180;-52
2023/07/16 08:29:37;;;;;;;1.80;1.70;;;27.40;58.60;;;;;;222347;1260;22534;-52
2023/07/16 08:34:42;;;;;;;2.00;1.80;;;27.40;58.60;;;;;;222498;1247;24170;-53
2023/07/16 08:39:46;;;;;;;1.70;1.60;;;27.50;58.40;;;;;;222420;1253;22629;-53
2023/07/16 08:44:51;;;;;;;2.10;1.90;;;27.40;58.40;;;;;;222572;1264;22519;-52
2023/07/16 08:49:56;;;;;;;1.60;1.50;;;27.50;58.40;;;;;;222494;1263;22514;-53
2023/07/16 08:55:00;;;;;;;1.70;1.60;;;27.50;58.60;;;;;;222509;1263;22730;-54
2023/07/16 09:00:07;;;;;;;1.80;1.60;;;27.50;58.50;;;;;;222435;1247;25214;-54
2023/07/16 09:05:12;;;;;;;1.30;1.20;;;27.50;58.20;;;;;;222523;1261;25486;-52
2023/07/16 09:10:37;;;;;;;2.50;1.90;;;27.50;58.10;;;;;;222408;1264;22594;-52
2023/07/16 09:15:44;;;;;;;1.70;1.60;;;27.50;58.50;;;;;;222687;1265;25540;-55
2023/07/16 09:21:03;;;;;;;1.70;1.60;;;27.50;58.20;;;;;;222610;1259;22622;-55
2023/07/16 09:26:07;;;;;;;2.00;1.60;;;27.40;58.50;;;;;;222461;1266;22733;-53
2023/07/16 09:31:12;;;;;;;1.40;1.30;;;27.40;58.60;;;;;;222516;1254;25258;-55
2023/07/16 09:36:24;;;;;;;2.00;1.80;;;27.40;58.60;;;;;;222862;1263;25284;-52
2023/07/16 09:41:29;;;;;;;1.70;1.60;;;27.50;58.50;;;;;;222520;1254;22534;-55
2023/07/16 09:46:33;;;;;;;2.90;1.50;;;27.60;58.70;;;;;;222574;1260;26048;-51
2023/07/16 09:51:38;;;;;;;1.60;1.50;;;27.60;58.50;;;;;;222310;1260;22505;-53
2023/07/16 09:56:53;;;;;;;1.70;1.60;;;27.60;58.70;;;;;;222757;1264;25397;-53
2023/07/16 10:01:58;;;;;;;1.60;1.50;;;27.60;58.60;;;;;;222797;1266;25629;-51
2023/07/16 10:07:04;;;;;;;1.90;1.40;;;27.70;58.60;;;;;;222340;1264;26643;-54
2023/07/16 10:12:14;;;;;;;1.60;1.50;;;27.80;58.50;;;;;;222652;1263;24053;-55
2023/07/16 10:17:20;;;;;;;1.80;1.70;;;27.80;58.80;;;;;;222430;1257;24238;-53
2023/07/16 10:22:46;;;;;;;1.90;1.80;;;27.80;58.50;;;;;;222587;1264;22686;-53
2023/07/16 10:27:52;;;;;;;1.60;1.50;;;27.80;58.60;;;;;;222523;1253;25834;-52
2023/07/16 10:32:56;;;;;;;1.60;1.40;;;27.70;58.70;;;;;;222497;1259;22574;-54
2023/07/16 10:38:00;;;;;;;1.80;1.70;;;27.70;58.80;;;;;;222543;1263;22536;-51
2023/07/16 10:43:05;;;;;;;2.20;1.60;;;27.60;59.00;;;;;;222430;1257;24688;-55
2023/07/16 10:48:10;;;;;;;1.70;1.60;;;27.60;59.10;;;;;;222881;1264;25239;-55
2023/07/16 10:53:14;;;;;;;2.60;2.40;;;27.60;60.00;;;;;;222296;1253;24244;-52
2023/07/16 10:58:18;;;;;;;1.80;1.70;;;27.50;60.30;;;;;;222487;1256;24257;-51
2023/07/16 11:03:23;;;;;;;1.80;1.70;;;27.50;60.50;;;;;;222434;1261;22595;-51
2023/07/16 11:08:27;;;;;;;2.10;1.70;;;27.40;60.50;;;;;;222421;1266;24598;-51
2023/07/16 11:13:32;;;;;;;1.60;1.50;;;27.40;60.90;;;;;;222542;1256;22504;-53
2023/07/16 11:18:37;;;;;;;2.10;1.60;;;27.40;60.80;;;;;;222565;1260;22504;-54
2023/07/16 11:23:41;;;;;;;1.60;1.50;;;27.40;60.90;;;;;;222586;1263;25213;-53
2023/07/16 11:28:46;;;;;;;5.10;1.70;;;27.40;61.00;;;;;;222340;1257;25306;-53
2023/07/16 11:33:50;;;;;;;1.70;1.60;;;27.40;60.90;;;;;;222135;1259;22523;-53
2023/07/16 11:38:54;;;;;;;2.00;1.90;;;27.40;60.90;;;;;;222590;1267;22508;-54
2023/07/16 11:44:02;;;;;;;1.90;1.80;;;27.40;60.70;;;;;;222527;1260;22660;-57
2023/07/16 11:49:06;;;;;;;1.30;1.30;;;27.50;60.80;;;;;;222533;1254;22780;-54
2023/07/16 11:54:10;;;;;;;2.80;1.50;;;27.50;60.70;;;;;;222635;1260;23109;-53
2023/07/16 11:59:20;;;;;;;1.40;1.30;;;27.40;61.10;;;;;;222655;1266;24397;-53
2023/07/16 12:04:23;;;;;;;1.50;1.40;;;27.40;60.30;;;;;;222568;1268;22562;-55
2023/07/16 12:09:28;;;;;;;1.50;1.40;;;27.30;59.80;;;;;;222587;1261;26607;-54
2023/07/16 12:14:32;;;;;;;1.20;1.20;;;27.30;59.70;;;;;;222461;1266;25426;-52
2023/07/16 12:19:36;;;;;;;1.20;1.20;;;27.30;59.40;;;;;;222617;1266;24723;-50
2023/07/16 12:24:41;;;;;;;1.10;1.00;;;27.40;59.40;;;;;;222459;1263;22527;-54
2023/07/16 12:29:48;;;;;;;1.50;1.40;;;27.40;59.30;;;;;;222559;1266;22534;-53
2023/07/16 12:34:53;;;;;;;1.30;1.20;;;27.50;59.20;;;;;;222243;1260;24188;-53
2023/07/16 12:39:58;;;;;;;1.40;1.30;;;27.50;59.10;;;;;;222509;1263;26571;-54
2023/07/16 12:45:02;;;;;;;2.10;1.00;;;27.50;59.10;;;;;;222218;1268;22523;-55
2023/07/16 12:50:07;;;;;;;1.40;1.30;;;27.50;58.60;;;;;;222451;1266;24197;-51
2023/07/16 12:55:11;;;;;;;1.50;1.40;;;27.60;59.00;;;;;;222377;1253;24193;-53
2023/07/16 13:00:15;;;;;;;1.40;1.30;;;27.60;59.00;;;;;;222598;1268;22527;-52
2023/07/16 13:05:20;;;;;;;1.40;1.30;;;27.60;59.00;;;;;;222856;1264;22626;-53
2023/07/16 13:10:25;;;;;;;1.50;1.40;;;27.60;58.90;;;;;;222404;1256;24228;-55
2023/07/16 13:15:31;;;;;;;1.10;1.10;;;27.50;59.20;;;;;;222732;1257;22510;-54
2023/07/16 13:20:36;;;;;;;1.50;1.40;;;27.50;59.70;;;;;;222611;1268;22609;-54
2023/07/16 13:25:40;;;;;;;1.20;1.10;;;27.50;59.60;;;;;;222619;1257;22518;-53
2023/07/16 13:30:45;;;;;;;1.60;1.50;;;27.50;59.70;;;;;;222511;1266;22530;-52
2023/07/16 13:35:50;;;;;;;1.70;1.40;;;27.50;59.60;;;;;;222798;1263;25447;-51
2023/07/16 13:40:55;;;;;;;1.20;1.10;;;27.60;59.70;;;;;;222657;1260;25231;-55
2023/07/16 13:46:00;;;;;;;1.90;1.60;;;27.60;59.70;;;;;;222749;1265;23152;-56
2023/07/16 13:51:05;;;;;;;1.80;1.30;;;27.60;59.80;;;;;;222608;1266;22636;-55
2023/07/16 13:56:12;;;;;;;1.10;1.10;;;27.70;59.50;;;;;;222763;1266;22516;-54
2023/07/16 14:01:18;;;;;;;1.50;1.40;;;27.70;59.60;;;;;;222304;1268;22519;-55
2023/07/16 14:06:23;;;;;;;1.40;1.30;;;27.70;59.60;;;;;;222551;1260;24719;-53
2023/07/16 14:11:28;;;;;;;1.50;1.40;;;27.80;59.50;;;;;;222880;1265;22511;-55
2023/07/16 14:16:35;;;;;;;1.50;1.40;;;27.70;59.60;;;;;;222294;1254;307965;-52
2023/07/16 14:21:40;;;;;;;1.20;1.20;;;27.80;59.60;;;;;;222707;1255;23142;-54
2023/07/16 14:26:44;;;;;;;1.70;1.60;;;27.80;59.70;;;;;;222275;1266;22518;-51
2023/07/16 14:31:49;;;;;;;1.50;1.40;;;27.70;60.10;;;;;;222554;1267;22522;-54
2023/07/16 14:36:55;;;;;;;1.60;1.50;;;27.70;59.80;;;;;;222619;1266;22534;-56
2023/07/16 14:42:03;;;;;;;1.40;1.30;;;27.70;59.90;;;;;;222369;1245;25201;-52
2023/07/16 14:47:07;;;;;;;1.10;1.10;;;27.70;59.80;;;;;;222593;1261;22653;-53
2023/07/16 14:52:12;;;;;;;1.60;1.50;;;27.70;60.00;;;;;;222414;1253;24358;-55
2023/07/16 14:57:17;;;;;;;1.70;1.50;;;27.70;60.00;;;;;;222564;1245;22582;-54
2023/07/16 15:02:21;;;;;;;1.50;1.40;;;27.70;60.00;;;;;;222528;1247;25233;-53
2023/07/16 15:07:26;;;;;;;1.40;1.30;;;27.70;60.10;;;;;;222548;1266;22556;-51
2023/07/16 15:12:32;;;;;;;1.50;1.40;;;27.70;60.40;;;;;;222467;1256;24220;-55
2023/07/16 15:17:37;;;;;;;1.60;1.50;;;27.70;60.10;;;;;;222341;1266;22510;-51
2023/07/16 15:22:42;;;;;;;1.60;1.50;;;27.70;59.80;;;;;;222650;1260;22611;-55
2023/07/16 15:27:46;;;;;;;1.50;1.40;;;27.70;60.20;;;;;;222690;1261;22643;-52
2023/07/16 15:32:52;;;;;;;1.40;1.30;;;27.70;60.30;;;;;;222465;1267;25192;-52
2023/07/16 15:37:59;;;;;;;2.10;1.50;;;27.70;60.40;;;;;;222533;1257;26004;-53
2023/07/16 15:43:04;;;;;;;1.60;1.50;;;27.60;60.80;;;;;;222388;1261;22545;-53
2023/07/16 15:48:12;;;;;;;1.50;1.40;;;27.60;60.80;;;;;;222577;1267;22511;-55
2023/07/16 15:53:17;;;;;;;1.70;1.60;;;27.70;61.30;;;;;;222738;1254;25661;-52
2023/07/16 15:58:22;;;;;;;1.50;1.40;;;27.70;61.30;;;;;;222535;1268;22678;-52
2023/07/16 16:03:27;;;;;;;1.50;1.40;;;27.70;61.10;;;;;;222750;1266;24250;-53
2023/07/16 16:08:36;;;;;;;1.80;1.70;;;27.70;61.00;;;;;;222502;1257;22606;-55
2023/07/16 16:13:41;;;;;;;1.70;1.60;;;27.70;61.00;;;;;;222601;1246;22513;-53
2023/07/16 16:18:46;;;;;;;1.40;1.30;;;27.70;61.50;;;;;;222406;1266;24215;-51
2023/07/16 16:23:50;;;;;;;3.50;1.60;;;27.70;61.10;;;;;;222539;1263;22617;-51
2023/07/16 16:28:56;;;;;;;1.70;1.50;;;27.80;61.40;;;;;;222595;1251;26614;-51
2023/07/16 16:34:01;;;;;;;1.60;1.50;;;27.80;61.10;;;;;;222450;1266;24230;-51
2023/07/16 16:39:05;;;;;;;1.60;1.50;;;27.80;61.10;;;;;;222608;1268;26288;-52
2023/07/16 16:44:11;;;;;;;1.50;1.50;;;27.80;61.60;;;;;;222726;1261;22505;-52
2023/07/16 16:49:17;;;;;;;1.60;1.50;;;27.80;60.90;;;;;;222460;1260;25462;-52
2023/07/16 16:54:22;;;;;;;1.90;1.60;;;27.80;60.90;;;;;;222392;1268;22656;-54
2023/07/16 16:59:26;;;;;;;1.50;1.40;;;27.70;60.90;;;;;;222507;1264;25259;-52
2023/07/16 17:04:30;;;;;;;1.60;1.50;;;27.70;61.30;;;;;;222450;1268;22521;-53
2023/07/16 17:09:37;;;;;;;2.00;1.60;;;27.70;60.70;;;;;;222592;1260;25092;-53
2023/07/16 17:14:45;;;;;;;1.80;1.70;;;27.70;61.10;;;;;;222541;1254;25246;-54
2023/07/16 17:19:56;;;;;;;1.60;1.50;;;27.70;61.10;;;;;;222534;1260;24180;-55
2023/07/16 17:25:00;;;;;;;1.80;1.70;;;27.70;61.40;;;;;;222334;1266;22531;-54
2023/07/16 17:30:07;;;;;;;2.40;1.60;;;27.70;61.20;;;;;;222529;1254;23125;-53
2023/07/16 17:35:11;;;;;;;1.90;1.80;;;27.70;61.00;;;;;;222692;1260;22531;-55
2023/07/16 17:40:15;;;;;;;1.70;1.50;;;27.70;61.10;;;;;;222444;1268;22708;-54
2023/07/16 17:45:20;;;;;;;1.60;1.50;;;27.70;61.10;;;;;;222581;1268;24225;-53
2023/07/16 17:50:25;;;;;;;1.90;1.70;;;27.70;61.00;;;;;;222592;1268;25299;-48
2023/07/16 17:55:29;;;;;;;1.50;1.40;;;27.70;61.00;;;;;;222872;1251;26359;-55
2023/07/16 18:00:33;;;;;;;1.60;1.50;;;27.70;60.70;;;;;;222703;1264;24465;-51
2023/07/16 18:05:39;;;;;;;1.80;1.70;;;27.70;60.50;;;;;;222633;1267;22539;-48
2023/07/16 18:10:44;;;;;;;2.00;1.50;;;27.70;60.80;;;;;;222541;1269;25210;-48
2023/07/16 18:15:49;;;;;;;1.60;1.50;;;27.60;60.40;;;;;;222469;1266;22530;-49
2023/07/16 18:20:53;;;;;;;2.10;1.70;;;27.60;60.50;;;;;;222581;1262;25377;-51
2023/07/16 18:26:04;;;;;;;1.90;1.80;;;27.60;60.10;;;;;;222417;1264;22524;-51
2023/07/16 18:31:09;;;;;;;2.50;1.90;;;27.60;60.00;;;;;;222686;1264;22527;-52
2023/07/16 18:36:14;;;;;;;3.00;2.60;;;27.60;59.90;;;;;;222722;1266;25447;-50
2023/07/16 18:41:19;;;;;;;2.80;2.60;;;27.50;59.70;;;;;;222607;1266;22587;-48
2023/07/16 18:46:24;;;;;;;3.40;3.10;;;27.50;60.00;;;;;;221038;1273;25390;-50
2023/07/16 18:51:29;;;;;;;4.00;3.70;;;27.50;59.50;;;;;;221250;1269;24357;-50
2023/07/16 18:56:34;;;;;;;3.90;3.60;;;27.50;59.80;;;;;;221070;1269;22529;-49
2023/07/16 19:01:39;;;;;;;4.50;3.60;;;27.50;59.40;;;;;;221347;1267;22655;-54
2023/07/16 19:06:44;;;;;;;6.70;3.60;;;27.50;59.30;;;;;;222537;1261;25293;-52
2023/07/16 19:11:50;;;;;;;3.80;3.50;;;27.50;59.40;;;;;;223043;1264;22524;-54
2023/07/16 19:16:56;;;;;;;4.60;3.80;;;27.40;58.90;;;;;;222662;1261;25456;-54
2023/07/16 19:22:00;;;;;;;3.90;3.60;;;27.40;59.20;;;;;;222740;1261;22517;-51
2023/07/16 19:27:06;;;;;;;3.50;3.10;;;27.40;59.30;;;;;;222391;1260;22525;-51
2023/07/16 19:32:11;;;;;;;5.70;3.60;;;27.40;58.90;;;;;;222699;1254;22547;-55
2023/07/16 19:37:16;;;;;;;3.60;3.30;;;27.40;59.00;;;;;;222409;1268;22636;-53
2023/07/16 19:42:24;;;;;;;4.60;3.30;;;27.40;59.00;;;;;;222636;1254;24099;-51
2023/07/16 19:47:28;;;;;;;4.40;4.00;;;27.40;59.10;;;;;;222510;1254;24195;-54
2023/07/16 19:52:33;;;;;;;3.50;3.20;;;27.30;59.10;;;;;;222302;1269;22564;-54
2023/07/16 19:57:38;;;;;;;4.00;3.70;;;27.30;59.20;;;;;;222518;1254;22510;-54
2023/07/16 20:02:45;;;;;;;4.10;3.80;;;27.30;59.40;;;;;;222603;1261;24345;-54
2023/07/16 20:07:51;;;;;;;5.10;3.70;;;27.30;59.60;;;;;;222517;1264;22596;-52
2023/07/16 20:12:56;;;;;;;4.10;3.80;;;27.30;59.60;;;;;;222475;1267;22529;-54
2023/07/16 20:18:06;;;;;;;3.30;3.10;;;27.30;59.30;;;;;;222464;1254;22498;-52
2023/07/16 20:23:14;;;;;;;4.10;3.70;;;27.20;59.40;;;;;;222800;1268;23007;-51
2023/07/16 20:28:24;;;;;;;3.20;3.00;;;27.30;59.40;;;;;;222626;1261;22615;-52
2023/07/16 20:33:30;;;;;;;5.70;3.70;;;27.20;59.80;;;;;;222744;1260;25566;-54
2023/07/16 20:38:35;;;;;;;4.50;4.10;;;27.20;59.40;;;;;;222608;1254;24195;-54
2023/07/16 20:43:41;;;;;;;4.70;4.30;;;27.20;59.50;;;;;;222843;1254;24109;-53
2023/07/16 20:48:46;;;;;;;3.80;3.50;;;27.20;59.60;;;;;;222411;1258;22687;-54
2023/07/16 20:53:51;;;;;;;3.80;3.40;;;27.10;59.60;;;;;;222360;1258;25268;-55
2023/07/16 20:58:55;;;;;;;4.20;3.80;;;27.10;59.70;;;;;;222490;1254;24195;-54
2023/07/16 21:04:02;;;;;;;4.40;4.00;;;27.10;59.60;;;;;;222465;1267;24077;-52
2023/07/16 21:09:07;;;;;;;3.90;3.60;;;27.10;59.50;;;;;;222440;1264;22515;-52
2023/07/16 21:14:11;;;;;;;3.50;3.30;;;27.10;59.40;;;;;;222634;1254;25313;-53
2023/07/16 21:19:16;;;;;;;4.00;3.50;;;27.10;59.50;;;;;;222410;1268;22527;-51
2023/07/16 21:24:23;;;;;;;4.40;4.00;;;27.00;59.50;;;;;;222502;1254;22765;-54
2023/07/16 21:29:27;;;;;;;6.20;3.70;;;27.00;59.50;;;;;;222687;1260;22530;-52
2023/07/16 21:34:31;;;;;;;4.80;4.30;;;27.00;60.00;;;;;;222574;1254;23935;-54
2023/07/16 21:39:35;;;;;;;3.90;3.60;;;27.00;59.80;;;;;;222646;1264;22583;-52
2023/07/16 21:44:39;;;;;;;5.10;4.70;;;27.00;59.90;;;;;;222476;1254;24190;-54
2023/07/16 21:49:45;;;;;;;4.50;4.20;;;27.00;60.00;;;;;;222348;1260;22518;-52
2023/07/16 21:54:49;;;;;;;5.20;4.80;;;27.00;60.00;;;;;;222528;1254;22512;-51
2023/07/16 21:59:53;;;;;;;4.40;4.10;;;27.00;60.00;;;;;;222323;1267;24311;-51
2023/07/16 22:04:57;;;;;;;4.70;4.30;;;27.00;60.00;;;;;;222327;1256;22509;-53
2023/07/16 22:10:02;;;;;;;4.30;4.00;;;26.90;60.10;;;;;;221160;1268;22524;-54
2023/07/16 22:15:07;;;;;;;4.60;4.20;;;26.90;59.90;;;;;;220797;1271;22786;-51
2023/07/16 22:20:12;;;;;;;4.40;4.00;;;26.90;60.30;;;;;;221298;1272;22544;-53
2023/07/16 22:25:17;;;;;;;4.20;3.90;;;26.90;60.50;;;;;;221407;1259;25374;-55
2023/07/16 22:30:21;;;;;;;6.30;4.30;;;26.90;60.30;;;;;;222497;1264;22527;-52
2023/07/16 22:35:25;;;;;;;4.60;3.70;;;26.90;60.20;;;;;;222352;1253;22534;-54
2023/07/16 22:40:29;;;;;;;4.10;3.60;;;26.90;60.30;;;;;;222412;1268;22512;-55
2023/07/16 22:45:35;;;;;;;5.80;3.80;;;26.80;60.30;;;;;;222194;1266;22527;-54
2023/07/16 22:50:41;;;;;;;3.70;3.30;;;26.90;60.40;;;;;;222286;1264;24227;-54
2023/07/16 22:55:45;;;;;;;3.90;3.40;;;26.80;60.40;;;;;;222532;1263;22636;-50
2023/07/16 23:00:49;;;;;;;3.80;3.50;;;26.80;60.90;;;;;;222549;1253;22516;-55
2023/07/16 23:05:54;;;;;;;3.50;3.30;;;26.80;60.60;;;;;;222186;1258;25613;-52
2023/07/16 23:10:59;;;;;;;4.90;3.50;;;26.80;60.60;;;;;;222596;1263;24346;-52
2023/07/16 23:16:05;;;;;;;3.70;3.40;;;26.80;60.70;;;;;;222272;1263;22521;-54
2023/07/16 23:21:10;;;;;;;3.70;3.20;;;26.80;60.60;;;;;;222170;1268;22468;-52
2023/07/16 23:26:14;;;;;;;3.90;3.60;;;26.80;60.90;;;;;;222361;1266;22574;-52
2023/07/16 23:31:18;;;;;;;3.50;3.30;;;26.80;61.40;;;;;;222388;1267;24189;-53
2023/07/16 23:36:23;;;;;;;3.10;2.80;;;26.70;60.70;;;;;;222513;1263;25692;-54
2023/07/16 23:41:27;;;;;;;3.50;3.20;;;26.60;60.50;;;;;;222415;1254;24361;-54
2023/07/16 23:46:31;;;;;;;3.20;2.90;;;26.70;60.40;;;;;;222475;1263;22524;-54
2023/07/16 23:51:36;;;;;;;3.50;3.00;;;26.70;60.20;;;;;;222406;1263;24330;-52
2023/07/16 23:56:40;;;;;;;3.20;3.00;;;26.60;60.00;;;;;;222227;1260;22516;-51
